Time;durP1;ratioP1;P1;durP2;ratioP2;P2;SDS_P1;SDS_P2;PMS_P1;PMS_P2;Temp;Humidity;BMP_temperature;BMP_pressure;BME280_temperature;BME280_humidity;BME280_pressure;Samples;Min_cycle;Max_cycle;Signal;HPM_P1;HPM_P2
2021/12/19 00:02:00;;;;;;;6.87;4.22;;;;;;;6.81;93.94;99985.92;1755498;80;21091;-65
2021/12/19 00:03:50;;;;;;;7.87;4.72;;;;;;;6.88;94.38;99984.78;1750623;80;21598;-64
2021/12/19 00:08:52;;;;;;;5.78;3.30;;;;;;;6.94;93.21;99977.66;1754467;80;21212;-65
2021/12/19 00:11:22;;;;;;;6.60;3.40;;;;;;;7.07;92.43;99971.94;1750678;80;21629;-64
2021/12/19 00:13:50;;;;;;;5.78;3.55;;;;;;;6.94;92.94;99967.30;1752602;80;21018;-66
2021/12/19 00:16:20;;;;;;;7.12;3.90;;;;;;;6.55;97.58;99965.44;1754511;80;22303;-64
2021/12/19 00:18:47;;;;;;;5.97;3.47;;;;;;;6.45;100.00;99965.28;1754960;80;21122;-64
2021/12/19 00:21:17;;;;;;;6.22;3.45;;;;;;;6.41;100.00;99957.03;1754202;80;22001;-64
2021/12/19 00:23:44;;;;;;;6.28;3.20;;;;;;;6.51;100.00;99949.88;1753245;80;20981;-66
2021/12/19 00:26:11;;;;;;;6.37;3.37;;;;;;;6.67;98.99;99944.38;1752836;80;21326;-65
2021/12/19 00:28:39;;;;;;;6.10;3.20;;;;;;;6.25;100.00;99945.37;1753572;80;21123;-66
2021/12/19 00:31:06;;;;;;;6.50;3.30;;;;;;;6.73;98.90;99943.20;1753568;80;21054;-66
2021/12/19 00:33:32;;;;;;;8.13;3.60;;;;;;;6.38;100.00;99944.41;1719011;81;22122;-66
2021/12/19 00:35:59;;;;;;;12.23;4.00;;;;;;;6.40;100.00;99943.73;1720258;81;21992;-66
2021/12/19 00:38:26;;;;;;;7.90;3.58;;;;;;;6.33;100.00;99939.72;1750870;80;21871;-65
2021/12/19 00:40:53;;;;;;;8.93;3.55;;;;;;;6.38;100.00;99934.05;1753183;80;21078;-65
2021/12/19 00:43:32;;;;;;;9.35;3.95;;;;;;;6.26;100.00;99930.98;1752675;80;20962;-67
2021/12/19 00:45:52;;;;;;;9.35;3.95;;;;;;;6.49;100.00;99929.02;1752189;80;21901;-66
2021/12/19 00:48:19;;;;;;;10.75;4.15;;;;;;;6.54;100.00;99926.25;1753630;80;21549;-64
2021/12/19 00:50:46;;;;;;;13.43;4.65;;;;;;;6.40;100.00;99922.22;1754158;81;21128;-65
2021/12/19 00:53:15;;;;;;;7.33;3.02;;;;;;;6.74;100.00;99920.23;1753057;81;21073;-65
2021/12/19 00:55:42;;;;;;;11.90;3.72;;;;;;;6.77;96.39;99912.11;1753384;80;21028;-65
2021/12/19 00:58:09;;;;;;;8.85;3.75;;;;;;;6.70;97.36;99912.45;1753428;81;21752;-65
2021/12/19 01:00:38;;;;;;;13.38;4.12;;;;;;;6.85;96.38;99907.88;1755447;80;21072;-65
2021/12/19 01:03:05;;;;;;;10.55;4.17;;;;;;;6.56;98.81;99904.89;1754023;81;21468;-66
2021/12/19 01:05:34;;;;;;;7.90;4.05;;;;;;;6.67;99.11;99904.23;1753481;81;21061;-63
2021/12/19 01:08:03;;;;;;;7.12;3.75;;;;;;;6.49;99.82;99899.25;1754048;80;21068;-66
2021/12/19 01:10:29;;;;;;;6.72;3.67;;;;;;;6.50;100.00;99887.91;1754517;80;22535;-63
2021/12/19 01:13:01;;;;;;;6.47;3.60;;;;;;;6.66;99.94;99885.27;1754666;80;20955;-63
2021/12/19 01:15:25;;;;;;;7.47;3.62;;;;;;;6.72;99.28;99876.03;1753459;81;21439;-66
2021/12/19 01:17:52;;;;;;;6.25;3.58;;;;;;;6.80;97.45;99876.00;1754675;79;21582;-64
2021/12/19 01:20:22;;;;;;;5.78;3.20;;;;;;;6.57;99.90;99865.06;1754069;80;21005;-63
2021/12/19 01:22:51;;;;;;;5.78;3.35;;;;;;;6.51;99.71;99867.02;1754055;81;21099;-64
2021/12/19 01:25:17;;;;;;;7.35;3.40;;;;;;;6.64;99.52;99864.41;1754025;80;20962;-65
2021/12/19 01:27:47;;;;;;;8.75;2.83;;;;;;;6.67;98.47;99855.83;1754376;80;21496;-64
2021/12/19 01:30:15;;;;;;;6.22;3.22;;;;;;;6.80;97.51;99850.09;1753380;81;20962;-64
2021/12/19 01:32:43;;;;;;;4.25;2.42;;;;;;;6.83;95.03;99847.98;1755175;80;21088;-63
2021/12/19 01:35:13;;;;;;;7.17;3.05;;;;;;;6.95;93.91;99851.00;1754032;81;21107;-65
2021/12/19 01:37:42;;;;;;;7.25;3.60;;;;;;;6.97;92.33;99849.06;1753807;81;21408;-63
2021/12/19 01:40:10;;;;;;;7.80;2.98;;;;;;;6.98;92.39;99840.80;1754762;80;20978;-65
2021/12/19 01:42:39;;;;;;;7.83;2.55;;;;;;;6.77;92.81;99841.36;1754341;80;21058;-64
2021/12/19 01:45:09;;;;;;;7.03;2.80;;;;;;;6.84;93.00;99835.83;1754723;80;21136;-65
2021/12/19 01:47:35;;;;;;;7.08;2.55;;;;;;;6.99;91.38;99832.03;1754638;80;22476;-64
2021/12/19 01:50:07;;;;;;;8.03;2.08;;;;;;;6.85;91.25;99828.86;1754616;80;20997;-65
2021/12/19 01:52:37;;;;;;;7.08;2.45;;;;;;;6.87;91.40;99829.52;1754730;79;21069;-64
2021/12/19 01:55:05;;;;;;;5.35;2.10;;;;;;;6.68;92.89;99830.73;1753908;80;21056;-65
2021/12/19 01:57:31;;;;;;;4.08;2.08;;;;;;;6.66;93.47;99828.78;1754504;80;21625;-63
2021/12/19 01:59:58;;;;;;;4.65;1.95;;;;;;;6.61;94.51;99823.30;1754442;80;21056;-65
2021/12/19 02:02:28;;;;;;;4.97;2.20;;;;;;;6.64;92.95;99823.78;1754750;80;21527;-63
2021/12/19 02:04:58;;;;;;;5.00;2.58;;;;;;;6.43;95.08;99831.28;1754090;80;20950;-65
2021/12/19 02:07:26;;;;;;;6.53;2.72;;;;;;;6.48;94.74;99825.14;1755262;81;22342;-64
2021/12/19 02:09:52;;;;;;;6.45;2.20;;;;;;;6.44;93.53;99823.37;1755264;81;21523;-63
2021/12/19 02:12:19;;;;;;;4.28;1.80;;;;;;;6.47;92.71;99824.31;1754244;81;21310;-64
2021/12/19 02:14:45;;;;;;;4.55;2.00;;;;;;;6.77;91.22;99820.15;1754923;81;21010;-64
2021/12/19 02:17:12;;;;;;;5.20;1.52;;;;;;;7.12;84.68;99812.84;1754416;81;21024;-64
2021/12/19 02:19:40;;;;;;;5.92;2.00;;;;;;;7.18;82.87;99806.98;1755023;81;21044;-64
2021/12/19 02:22:10;;;;;;;4.28;1.45;;;;;;;7.49;77.23;99800.92;1755040;81;21567;-64
2021/12/19 02:24:39;;;;;;;3.45;1.50;;;;;;;7.84;71.22;99794.80;1755090;81;21147;-64
2021/12/19 02:27:05;;;;;;;4.40;1.50;;;;;;;7.29;70.70;99788.43;1754336;81;21581;-64
2021/12/19 02:29:33;;;;;;;9.80;2.10;;;;;;;6.96;75.66;99799.48;1754966;81;21014;-64
2021/12/19 02:32:01;;;;;;;7.42;2.05;;;;;;;6.87;77.31;99792.75;1754996;81;21073;-66
2021/12/19 02:34:32;;;;;;;5.30;1.40;;;;;;;7.02;75.43;99792.83;1754795;81;21061;-64
2021/12/19 02:37:07;;;;;;;4.03;1.50;;;;;;;7.12;74.10;99797.78;1754249;81;21144;-63
2021/12/19 02:39:49;;;;;;;6.25;1.35;;;;;;;7.01;73.91;99787.34;1754544;80;21682;-64
2021/12/19 02:50:19;;;;;;;3.55;1.30;;;;;;;6.67;74.38;99779.42;1755017;80;21144;-64
2021/12/19 02:52:46;;;;;;;3.10;1.30;;;;;;;6.94;71.95;99773.45;1755009;81;21078;-64
2021/12/19 02:55:15;;;;;;;3.90;1.47;;;;;;;7.12;70.15;99771.86;1754444;81;21056;-65
2021/12/19 02:57:41;;;;;;;3.30;1.02;;;;;;;7.26;68.38;99762.05;1754481;81;21104;-64
2021/12/19 03:00:11;;;;;;;3.77;1.57;;;;;;;7.13;67.88;99755.35;1755150;81;21157;-64
2021/12/19 03:02:38;;;;;;;2.70;1.00;;;;;;;7.13;67.79;99747.58;1755106;81;21116;-64
2021/12/19 03:05:06;;;;;;;2.95;1.00;;;;;;;6.28;72.22;99750.92;1754359;80;21448;-66
2021/12/19 03:07:38;;;;;;;2.83;1.20;;;;;;;6.98;70.96;99737.14;1753336;81;21058;-64
2021/12/19 03:18:18;;;;;;;3.12;1.27;;;;;;;6.90;69.96;99725.55;1754305;81;21022;-66
2021/12/19 03:20:47;;;;;;;3.05;1.50;;;;;;;6.88;69.62;99721.01;1752152;81;21038;-64
2021/12/19 03:23:14;;;;;;;3.83;1.50;;;;;;;6.53;71.90;99718.78;1754521;80;21108;-63
2021/12/19 03:25:41;;;;;;;3.77;1.57;;;;;;;6.30;75.60;99719.22;1754717;80;20947;-63
2021/12/19 03:28:10;;;;;;;4.42;1.60;;;;;;;5.82;80.13;99722.24;1754814;80;21129;-65
2021/12/19 03:30:37;;;;;;;4.50;1.87;;;;;;;5.64;85.24;99712.58;1754269;80;20942;-63
2021/12/19 03:33:05;;;;;;;4.37;2.02;;;;;;;5.55;85.68;99719.05;1754894;80;21024;-63
2021/12/19 03:35:34;;;;;;;3.37;1.72;;;;;;;5.69;84.58;99714.20;1754849;80;21132;-62
2021/12/19 03:38:02;;;;;;;4.85;1.52;;;;;;;5.71;84.64;99714.34;1753862;81;21009;-62
2021/12/19 03:40:36;;;;;;;4.25;1.60;;;;;;;5.55;85.08;99707.42;1753263;81;21434;-65
2021/12/19 03:43:08;;;;;;;3.52;1.70;;;;;;;5.79;84.54;99703.97;1754128;81;21095;-65
2021/12/19 03:45:35;;;;;;;3.70;1.55;;;;;;;5.92;82.02;99694.91;1754072;81;21104;-60
2021/12/19 03:48:04;;;;;;;2.87;1.47;;;;;;;5.94;80.15;99692.48;1754570;80;21064;-67
2021/12/19 03:50:33;;;;;;;3.67;1.47;;;;;;;5.85;80.34;99698.64;1752814;81;21123;-65
2021/12/19 03:53:02;;;;;;;3.00;1.50;;;;;;;6.38;75.76;99693.30;1753574;81;21251;-65
2021/12/19 03:55:28;;;;;;;2.67;1.47;;;;;;;6.44;70.28;99691.80;1749421;81;21084;-63
2021/12/19 03:57:59;;;;;;;3.37;1.47;;;;;;;6.45;72.66;99690.34;1754212;80;20987;-63
2021/12/19 04:00:27;;;;;;;3.05;1.62;;;;;;;6.61;69.90;99682.97;1757100;78;21473;-66
2021/12/19 04:02:58;;;;;;;3.45;1.60;;;;;;;7.17;66.09;99680.16;1791299;79;22090;-64
2021/12/19 04:05:25;;;;;;;3.80;2.10;;;;;;;7.24;63.86;99684.95;1796409;79;21142;-63
2021/12/19 04:07:52;;;;;;;5.17;1.87;;;;;;;7.35;62.92;99683.70;1797021;79;20916;-64
2021/12/19 04:10:22;;;;;;;5.25;2.08;;;;;;;7.40;61.93;99666.65;1794440;79;21092;-66
2021/12/19 04:12:49;;;;;;;4.37;1.57;;;;;;;7.59;60.79;99673.61;1794655;79;21332;-65
2021/12/19 04:15:16;;;;;;;4.35;1.87;;;;;;;7.40;59.34;99669.24;1796728;79;21363;-65
2021/12/19 04:17:42;;;;;;;4.42;1.80;;;;;;;7.38;59.44;99656.94;1795922;79;21103;-65
2021/12/19 04:20:11;;;;;;;3.67;1.52;;;;;;;7.55;58.84;99655.80;1796707;79;21506;-67
2021/12/19 04:22:39;;;;;;;3.52;1.87;;;;;;;7.71;57.91;99641.84;1795719;79;21515;-66
2021/12/19 04:25:06;;;;;;;4.35;2.08;;;;;;;8.00;56.65;99635.04;1796307;79;21581;-64
2021/12/19 04:27:36;;;;;;;4.05;2.37;;;;;;;7.92;56.03;99632.55;1796400;79;20959;-64
2021/12/19 04:30:05;;;;;;;21.95;10.40;;;;;;;8.02;55.91;99632.55;1796819;79;20871;-64
2021/12/19 04:32:37;;;;;;;15.25;7.30;;;;;;;8.21;54.86;99618.19;1792202;79;20955;-64
2021/12/19 04:35:01;;;;;;;8.23;4.33;;;;;;;7.77;55.70;99616.49;1792808;79;20999;-65
2021/12/19 04:40:19;;;;;;;5.92;3.60;;;;;;;6.99;58.62;99620.36;1795656;79;21051;-66
2021/12/19 04:51:17;;;;;;;8.40;5.05;;;;;;;6.96;59.91;99583.63;1788883;79;20997;-65
2021/12/19 04:53:56;;;;;;;7.92;5.20;;;;;;;7.13;59.96;99579.11;1790687;79;21040;-65
2021/12/19 05:04:04;;;;;;;7.58;4.67;;;;;;;7.16;59.23;99548.92;1781561;80;21108;-65
2021/12/19 05:06:10;;;;;;;8.93;4.80;;;;;;;7.28;59.61;99554.80;1774324;80;21599;-65
2021/12/19 05:14:09;;;;;;;4.85;2.98;;;;;;;7.35;58.32;99547.12;1783564;80;21114;-64
2021/12/19 05:16:33;;;;;;;6.22;3.20;;;;;;;7.31;58.50;99554.45;1782655;80;21028;-67
2021/12/19 05:19:09;;;;;;;7.72;3.75;;;;;;;7.03;58.67;99557.33;1782213;80;20980;-67
2021/12/19 05:21:33;;;;;;;5.95;3.65;;;;;;;7.44;58.51;99553.02;1782829;80;21147;-64
2021/12/19 05:26:28;;;;;;;4.28;2.40;;;;;;;8.18;55.19;99547.66;1783264;80;20893;-65
2021/12/19 05:28:54;;;;;;;4.00;2.45;;;;;;;7.80;55.84;99547.85;1782944;80;21325;-65
2021/12/19 05:31:21;;;;;;;8.75;4.90;;;;;;;7.81;55.94;99542.99;1782585;80;21529;-63
2021/12/19 05:33:48;;;;;;;4.83;2.52;;;;;;;8.08;54.83;99541.98;1780770;80;21472;-64
2021/12/19 05:46:55;;;;;;;4.08;2.40;;;;;;;7.67;55.63;99516.09;1782273;80;22593;-65
2021/12/19 05:49:21;;;;;;;5.58;2.60;;;;;;;8.00;54.64;99516.95;1770681;80;21004;-64
2021/12/19 05:51:51;;;;;;;5.90;3.70;;;;;;;7.88;54.84;99513.20;1782659;80;21013;-63
2021/12/19 05:54:18;;;;;;;7.28;4.22;;;;;;;7.74;55.31;99514.38;1784926;79;22527;-63
2021/12/19 05:56:45;;;;;;;5.17;3.67;;;;;;;7.63;56.14;99501.08;1784001;79;21150;-66
2021/12/19 05:59:16;;;;;;;4.50;2.80;;;;;;;7.30;56.73;99497.58;1780277;80;21078;-65
2021/12/19 06:01:43;;;;;;;3.95;2.30;;;;;;;7.33;56.90;99494.63;1779196;79;21060;-68
2021/12/19 06:04:10;;;;;;;6.75;4.25;;;;;;;7.27;57.15;99488.86;1777601;79;21095;-64
2021/12/19 06:06:37;;;;;;;5.72;3.52;;;;;;;7.30;57.42;99482.83;1782909;79;20899;-67
2021/12/19 06:09:05;;;;;;;5.08;3.00;;;;;;;7.48;57.08;99461.70;1782883;79;21044;-64
2021/12/19 06:11:33;;;;;;;4.67;2.35;;;;;;;7.69;56.15;99461.42;1780407;79;21167;-67
2021/12/19 06:14:00;;;;;;;4.60;3.30;;;;;;;7.76;55.64;99453.22;1777258;80;20943;-65
2021/12/19 06:16:27;;;;;;;5.00;3.58;;;;;;;7.23;56.34;99457.80;1779686;79;21066;-65
2021/12/19 06:18:53;;;;;;;5.70;3.42;;;;;;;7.33;57.37;99453.65;1776276;79;20994;-66
2021/12/19 06:21:20;;;;;;;4.95;2.98;;;;;;;6.80;58.62;99448.09;1778098;80;22335;-64
2021/12/19 06:23:46;;;;;;;7.08;4.85;;;;;;;6.76;59.89;99436.97;1779230;79;21103;-68
2021/12/19 06:26:13;;;;;;;10.45;6.15;;;;;;;6.86;59.90;99438.81;1768474;79;20888;-65
2021/12/19 06:28:40;;;;;;;10.28;6.00;;;;;;;6.98;59.31;99433.98;1779083;79;21074;-65
2021/12/19 06:31:06;;;;;;;15.90;8.20;;;;;;;6.64;60.28;99429.34;1782395;79;20900;-68
2021/12/19 06:33:33;;;;;;;5.65;3.72;;;;;;;6.53;62.13;99421.02;1782843;79;21296;-66
2021/12/19 06:36:00;;;;;;;8.18;5.10;;;;;;;6.55;62.23;99422.13;1774454;79;21914;-67
2021/12/19 06:38:26;;;;;;;4.25;2.90;;;;;;;6.43;63.06;99413.19;1782669;79;20915;-66
2021/12/19 06:40:53;;;;;;;4.00;2.45;;;;;;;6.35;63.75;99406.30;1783745;79;21073;-65
2021/12/19 06:43:20;;;;;;;6.30;4.10;;;;;;;6.68;62.57;99403.39;1778580;79;20927;-66
2021/12/19 06:45:47;;;;;;;6.03;3.47;;;;;;;6.58;62.46;99404.45;1780961;79;21292;-66
2021/12/19 06:48:14;;;;;;;4.50;2.90;;;;;;;6.34;63.75;99400.82;1775567;79;21063;-67
2021/12/19 06:50:40;;;;;;;5.20;3.22;;;;;;;6.35;64.34;99392.06;1783541;79;20959;-66
2021/12/19 06:53:07;;;;;;;5.00;2.95;;;;;;;6.11;65.97;99398.28;1781955;80;20983;-67
2021/12/19 06:55:33;;;;;;;6.53;3.62;;;;;;;6.25;67.45;99395.39;1759032;80;20979;-68
2021/12/19 06:58:00;;;;;;;5.85;3.47;;;;;;;6.52;66.12;99382.37;1782348;80;21125;-67
2021/12/19 07:00:26;;;;;;;7.33;3.65;;;;;;;6.53;65.81;99383.47;1777879;79;21850;-67
2021/12/19 07:02:54;;;;;;;7.05;3.90;;;;;;;6.49;66.41;99383.52;1783517;79;21035;-68
2021/12/19 07:05:22;;;;;;;6.20;3.75;;;;;;;6.70;65.34;99380.70;1794131;79;21533;-68
2021/12/19 07:07:48;;;;;;;7.55;4.33;;;;;;;6.42;66.86;99380.03;1788260;79;22434;-68
2021/12/19 07:10:14;;;;;;;7.65;4.28;;;;;;;6.34;67.96;99381.41;1748523;81;21027;-67
2021/12/19 07:12:41;;;;;;;7.17;4.28;;;;;;;6.71;66.17;99383.63;1790806;79;21084;-68
2021/12/19 07:15:08;;;;;;;7.35;4.37;;;;;;;6.72;66.75;99357.53;1790534;79;21002;-67
2021/12/19 07:17:35;;;;;;;6.12;3.60;;;;;;;6.96;64.76;99359.50;1792886;79;21039;-68
2021/12/19 07:20:05;;;;;;;6.60;4.10;;;;;;;7.00;63.96;99355.07;1786565;79;21011;-67
2021/12/19 07:22:31;;;;;;;7.03;4.15;;;;;;;7.03;64.21;99348.23;1789135;79;21051;-68
2021/12/19 07:24:57;;;;;;;6.75;3.65;;;;;;;7.01;64.69;99351.52;1736684;81;21160;-65
2021/12/19 07:27:24;;;;;;;6.42;4.28;;;;;;;6.89;64.84;99350.35;1790661;79;21050;-67
2021/12/19 07:29:52;;;;;;;6.95;4.03;;;;;;;6.85;65.61;99347.81;1742866;81;20966;-68
2021/12/19 07:32:19;;;;;;;7.15;4.28;;;;;;;6.69;67.79;99341.55;1788182;79;21018;-65
2021/12/19 07:34:47;;;;;;;7.67;4.35;;;;;;;7.04;66.89;99334.78;1790799;79;21121;-67
2021/12/19 07:37:14;;;;;;;7.58;4.42;;;;;;;7.16;64.98;99332.52;1799864;79;21115;-68
2021/12/19 07:39:52;;;;;;;7.28;4.50;;;;;;;7.33;64.41;99320.94;1798421;79;21152;-61
2021/12/19 07:42:12;;;;;;;7.58;4.95;;;;;;;7.27;64.66;99315.18;1805162;79;21469;-65
2021/12/19 07:44:39;;;;;;;7.00;4.50;;;;;;;6.90;66.19;99308.44;1807015;79;21069;-66
2021/12/19 07:47:07;;;;;;;8.03;5.33;;;;;;;7.11;66.16;99309.74;1804530;79;20928;-64
2021/12/19 07:49:34;;;;;;;8.98;5.40;;;;;;;7.37;64.50;99303.22;1798029;79;21145;-64
2021/12/19 07:52:01;;;;;;;8.18;4.60;;;;;;;6.98;66.03;99293.58;1801200;79;20944;-65
2021/12/19 07:54:28;;;;;;;7.72;4.42;;;;;;;7.11;67.02;99293.40;1805038;78;22377;-65
2021/12/19 07:56:54;;;;;;;7.05;4.45;;;;;;;6.91;68.49;99293.20;1720941;81;20988;-63
2021/12/19 07:59:20;;;;;;;10.48;5.30;;;;;;;6.99;69.04;99295.17;1789720;79;21019;-63
2021/12/19 08:01:48;;;;;;;7.35;4.60;;;;;;;6.65;71.49;99276.86;1784657;79;21146;-64
2021/12/19 08:04:16;;;;;;;7.62;4.95;;;;;;;6.57;73.50;99272.09;1795090;79;20988;-67
2021/12/19 08:06:43;;;;;;;6.72;4.08;;;;;;;6.78;72.40;99264.88;1786077;79;21101;-66
2021/12/19 08:09:12;;;;;;;7.95;4.47;;;;;;;6.75;71.92;99261.34;1722946;81;21078;-68
2021/12/19 08:11:42;;;;;;;7.40;4.40;;;;;;;6.95;71.65;99258.96;1786607;79;20985;-67
2021/12/19 08:14:14;;;;;;;7.47;4.40;;;;;;;6.92;71.95;99255.44;1791821;79;21136;-69
2021/12/19 08:16:44;;;;;;;7.22;4.62;;;;;;;7.03;71.13;99251.56;1747724;80;21010;-68
2021/12/19 08:19:12;;;;;;;11.55;6.12;;;;;;;7.01;71.07;99250.46;1790085;79;21058;-66
2021/12/19 08:21:38;;;;;;;6.97;4.20;;;;;;;7.00;71.15;99246.25;1746393;81;20996;-66
2021/12/19 08:24:10;;;;;;;8.30;4.47;;;;;;;6.98;70.83;99235.78;1744541;81;21055;-69
2021/12/19 08:26:35;;;;;;;8.38;5.53;;;;;;;6.54;74.53;99241.38;1780260;79;21078;-68
2021/12/19 08:29:02;;;;;;;8.43;5.53;;;;;;;6.37;77.76;99229.64;1739741;81;21030;-68
2021/12/19 08:31:28;;;;;;;8.95;5.65;;;;;;;6.38;79.82;99224.77;1789143;79;20980;-69
2021/12/19 08:33:57;;;;;;;9.60;6.47;;;;;;;6.50;78.60;99218.13;1781658;79;20955;-69
2021/12/19 08:36:23;;;;;;;11.10;7.10;;;;;;;6.61;78.28;99216.06;1794035;79;20940;-69
2021/12/19 08:38:52;;;;;;;10.58;7.72;;;;;;;6.71;77.57;99219.17;1791024;79;21136;-69
2021/12/19 08:41:19;;;;;;;11.80;7.47;;;;;;;6.68;79.93;99210.47;1735112;81;21509;-69
2021/12/19 08:43:46;;;;;;;13.15;7.87;;;;;;;6.81;77.43;99206.20;1790354;79;21031;-69
2021/12/19 08:46:14;;;;;;;14.45;8.18;;;;;;;7.22;74.36;99186.15;1783123;79;20983;-69
2021/12/19 08:48:43;;;;;;;11.88;7.85;;;;;;;6.75;74.64;99182.35;1786604;79;21109;-69
2021/12/19 08:51:10;;;;;;;14.85;9.73;;;;;;;6.32;81.56;99181.48;1780318;80;21142;-70
2021/12/19 08:53:36;;;;;;;11.93;8.15;;;;;;;6.26;85.05;99178.34;1728588;81;20983;-69
2021/12/19 08:56:03;;;;;;;12.60;9.23;;;;;;;5.95;88.20;99164.34;1791918;79;21051;-69
2021/12/19 08:58:30;;;;;;;14.65;10.10;;;;;;;6.11;90.08;99162.04;1787566;79;21098;-69
2021/12/19 09:01:02;;;;;;;13.03;9.30;;;;;;;6.15;92.62;99152.93;1788368;79;20889;-67
2021/12/19 09:03:30;;;;;;;12.75;8.50;;;;;;;6.30;93.16;99156.29;1796388;78;21173;-67
2021/12/19 09:05:57;;;;;;;13.32;8.10;;;;;;;6.29;93.12;99150.81;1795965;78;20892;-69
2021/12/19 09:08:23;;;;;;;14.63;8.93;;;;;;;6.15;94.60;99150.34;1794736;78;21144;-69
2021/12/19 09:10:52;;;;;;;12.58;8.00;;;;;;;6.13;96.32;99148.41;1801050;78;20971;-68
2021/12/19 09:13:18;;;;;;;10.63;7.30;;;;;;;6.71;94.29;99122.85;1808914;78;20991;-68
2021/12/19 09:15:45;;;;;;;13.08;7.87;;;;;;;6.53;93.17;99126.36;1795510;78;21220;-69
2021/12/19 09:18:13;;;;;;;15.90;9.95;;;;;;;6.75;91.37;99106.45;1802735;78;20986;-69
2021/12/19 09:20:40;;;;;;;11.93;7.47;;;;;;;6.66;90.25;99105.75;1793170;78;20982;-69
2021/12/19 09:23:06;;;;;;;11.25;6.95;;;;;;;6.58;91.03;99097.62;1738028;80;21034;-67
2021/12/19 09:25:35;;;;;;;11.40;6.30;;;;;;;6.68;91.20;99092.14;1746503;80;21066;-68
2021/12/19 09:28:05;;;;;;;9.20;6.00;;;;;;;6.84;88.53;99088.48;1748106;81;21140;-68
2021/12/19 09:30:31;;;;;;;7.03;4.95;;;;;;;6.78;88.15;99078.86;1809747;78;21049;-67
2021/12/19 09:32:58;;;;;;;6.75;4.30;;;;;;;6.84;90.06;99050.92;1798143;78;21058;-67
2021/12/19 09:35:24;;;;;;;7.92;4.85;;;;;;;6.71;90.26;99046.95;1802776;78;20996;-68
2021/12/19 09:37:51;;;;;;;7.83;4.65;;;;;;;6.55;92.66;99037.17;1797976;78;21022;-68
2021/12/19 09:40:24;;;;;;;6.37;4.42;;;;;;;6.66;90.18;99004.77;1803802;78;21118;-67
2021/12/19 09:42:59;;;;;;;8.55;5.85;;;;;;;6.57;90.83;99000.73;1801783;78;21039;-67
2021/12/19 09:45:20;;;;;;;7.78;4.85;;;;;;;6.65;90.79;98985.05;1805535;78;20988;-67
2021/12/19 09:47:48;;;;;;;8.28;4.70;;;;;;;6.60;90.93;98983.53;1800107;78;21049;-68
2021/12/19 09:50:14;;;;;;;7.35;5.03;;;;;;;6.80;86.66;98987.05;1804571;78;21010;-65
2021/12/19 09:52:41;;;;;;;8.45;5.25;;;;;;;7.15;83.26;98988.33;1801843;78;22188;-67
2021/12/19 09:55:09;;;;;;;8.55;5.58;;;;;;;7.25;80.67;98984.11;1806696;78;21074;-68
2021/12/19 09:57:36;;;;;;;8.00;5.40;;;;;;;7.39;78.93;98972.81;1808697;78;21477;-65
2021/12/19 10:00:06;;;;;;;11.73;7.03;;;;;;;7.26;79.18;98984.41;1802276;78;21010;-68
2021/12/19 10:02:38;;;;;;;10.20;7.05;;;;;;;7.42;76.30;98969.80;1799796;78;21059;-68
2021/12/19 10:05:25;;;;;;;12.10;6.20;;;;;;;7.43;76.10;98966.23;1820078;78;21113;-69
2021/12/19 10:07:57;;;;;;;10.82;6.40;;;;;;;7.46;74.54;98964.56;1801172;78;20991;-69
2021/12/19 10:11:00;;;;;;;10.38;6.67;;;;;;;8.11;68.67;98948.53;1810158;78;21481;-69
2021/12/19 10:13:34;;;;;;;10.93;7.35;;;;;;;8.19;66.37;98953.52;1818553;78;20927;-66
2021/12/19 10:16:01;;;;;;;10.48;6.75;;;;;;;8.17;65.39;98932.14;1815699;78;20982;-69
2021/12/19 10:18:28;;;;;;;11.10;7.20;;;;;;;7.92;66.67;98930.14;1799286;78;21206;-68
2021/12/19 10:20:59;;;;;;;10.20;6.55;;;;;;;8.07;65.37;98931.73;1804488;78;21006;-68
2021/12/19 10:23:31;;;;;;;13.20;7.95;;;;;;;8.35;64.08;98935.44;1813566;78;21521;-68
2021/12/19 10:26:07;;;;;;;11.30;7.33;;;;;;;8.69;61.93;98904.55;1819768;78;20946;-66
2021/12/19 10:28:54;;;;;;;10.18;7.17;;;;;;;8.76;60.74;98903.53;1817721;78;20987;-67
2021/12/19 10:31:25;;;;;;;10.40;6.47;;;;;;;8.81;60.11;98901.62;1813891;78;21162;-67
2021/12/19 10:33:52;;;;;;;10.03;6.78;;;;;;;8.01;65.03;98895.20;1801116;78;21001;-66
2021/12/19 10:36:19;;;;;;;9.45;6.40;;;;;;;8.58;60.99;98888.30;1802515;78;21525;-66
2021/12/19 10:38:50;;;;;;;10.03;6.55;;;;;;;8.85;60.18;98897.60;1807999;78;21592;-66
2021/12/19 10:41:25;;;;;;;9.50;6.62;;;;;;;8.31;60.52;98885.72;1805468;78;21129;-68
2021/12/19 10:44:01;;;;;;;11.00;6.28;;;;;;;8.43;61.97;98887.22;1809448;78;21811;-66
2021/12/19 10:46:37;;;;;;;10.32;6.22;;;;;;;8.90;59.80;98866.63;1807323;78;21481;-66
2021/12/19 10:49:30;;;;;;;12.70;6.25;;;;;;;9.16;57.85;98860.98;1818134;78;21066;-67
2021/12/19 10:52:01;;;;;;;10.48;6.87;;;;;;;9.03;57.88;98868.87;1809673;78;21081;-67
2021/12/19 10:54:28;;;;;;;11.05;6.83;;;;;;;9.09;57.73;98866.72;1809062;78;22780;-67
2021/12/19 10:57:08;;;;;;;10.72;6.33;;;;;;;9.31;57.28;98850.31;1804300;78;21106;-62
2021/12/19 10:59:35;;;;;;;9.90;6.25;;;;;;;9.23;56.58;98826.16;1817456;78;21056;-60
2021/12/19 11:02:02;;;;;;;10.93;6.17;;;;;;;9.06;56.76;98833.37;1804830;78;21508;-62
2021/12/19 11:04:30;;;;;;;9.55;6.05;;;;;;;8.89;57.93;98810.44;1795441;78;21058;-63
2021/12/19 11:06:59;;;;;;;8.03;5.08;;;;;;;8.83;58.42;98816.48;1740891;79;20987;-61
2021/12/19 11:09:28;;;;;;;10.53;5.90;;;;;;;9.28;57.54;98807.34;1795535;79;21154;-61
2021/12/19 11:12:01;;;;;;;9.70;5.22;;;;;;;9.31;57.25;98797.01;1795248;79;20893;-61
2021/12/19 11:14:38;;;;;;;9.33;4.53;;;;;;;9.64;55.62;98768.16;1795162;79;21493;-61
2021/12/19 11:17:22;;;;;;;7.10;4.40;;;;;;;9.00;56.36;98774.70;1794858;79;21004;-62
2021/12/19 11:19:53;;;;;;;7.22;4.28;;;;;;;9.53;55.67;98759.74;1794545;79;21116;-68
2021/12/19 11:22:27;;;;;;;7.37;4.67;;;;;;;9.58;55.47;98760.68;1792259;79;21133;-62
2021/12/19 11:24:57;;;;;;;6.28;4.00;;;;;;;9.62;55.28;98769.68;1792628;79;21011;-62
2021/12/19 11:27:24;;;;;;;7.15;4.22;;;;;;;9.28;55.74;98766.22;1793312;79;20928;-62
2021/12/19 11:29:54;;;;;;;8.63;4.58;;;;;;;8.49;59.34;98771.66;1793318;79;20923;-64
2021/12/19 11:32:24;;;;;;;6.72;4.05;;;;;;;7.55;66.44;98753.34;1795908;79;20980;-62
2021/12/19 11:35:07;;;;;;;6.35;3.95;;;;;;;7.34;71.87;98752.23;1797513;79;21191;-63
2021/12/19 11:37:41;;;;;;;6.37;4.03;;;;;;;6.66;82.05;98743.24;1791153;79;20881;-64
2021/12/19 11:40:09;;;;;;;6.12;3.72;;;;;;;6.32;90.14;98753.17;1788788;79;21055;-63
2021/12/19 11:42:39;;;;;;;5.62;3.83;;;;;;;6.32;92.24;98727.29;1792688;79;21015;-65
2021/12/19 11:45:42;;;;;;;7.35;3.90;;;;;;;6.21;97.35;98747.24;1791242;79;21451;-62
2021/12/19 11:48:25;;;;;;;6.58;4.17;;;;;;;6.66;95.03;98741.16;1788333;79;21313;-61
2021/12/19 11:50:55;;;;;;;7.10;4.15;;;;;;;7.03;88.54;98732.88;1790156;79;21106;-63
2021/12/19 11:53:26;;;;;;;7.53;3.83;;;;;;;6.96;89.38;98710.54;1794085;79;21081;-66
2021/12/19 11:56:09;;;;;;;8.10;4.78;;;;;;;6.92;88.88;98716.61;1790161;79;21015;-64
2021/12/19 11:58:49;;;;;;;7.15;4.12;;;;;;;6.15;98.66;98721.66;1779898;80;20947;-67
2021/12/19 12:01:27;;;;;;;6.83;4.03;;;;;;;5.77;100.00;98719.92;1779988;79;21465;-65
2021/12/19 12:04:04;;;;;;;6.08;4.00;;;;;;;5.56;100.00;98725.44;1780023;79;21106;-63
2021/12/19 12:06:41;;;;;;;16.17;7.87;;;;;;;5.98;100.00;98724.23;1786416;79;20976;-63
2021/12/19 12:09:20;;;;;;;21.12;9.18;;;;;;;6.28;100.00;98724.79;1784822;79;20984;-70
2021/12/19 12:12:07;;;;;;;15.45;7.72;;;;;;;6.47;100.00;98716.30;1789854;79;21018;-69
2021/12/19 12:14:38;;;;;;;8.53;4.53;;;;;;;6.50;100.00;98722.39;1783835;78;21051;-62
2021/12/19 12:17:15;;;;;;;6.90;4.35;;;;;;;6.77;97.32;98721.17;1783451;80;20999;-61
2021/12/19 12:19:56;;;;;;;8.40;5.05;;;;;;;6.76;94.37;98698.36;1779598;80;21516;-63
2021/12/19 12:22:37;;;;;;;6.97;4.53;;;;;;;6.74;95.23;98704.25;1783368;79;21524;-66
2021/12/19 12:25:31;;;;;;;8.40;4.33;;;;;;;6.68;96.75;98696.45;1784043;80;21859;-61
2021/12/19 12:28:06;;;;;;;6.58;4.10;;;;;;;6.63;98.34;98700.11;1782981;80;21136;-63
2021/12/19 12:30:44;;;;;;;7.62;4.10;;;;;;;5.84;100.00;98685.36;1780758;80;22415;-67
2021/12/19 12:33:16;;;;;;;8.10;4.22;;;;;;;6.09;100.00;98670.17;1779102;79;21094;-62
2021/12/19 12:35:46;;;;;;;6.33;4.08;;;;;;;5.90;100.00;98677.82;1780133;78;21085;-66
2021/12/19 12:38:13;;;;;;;7.58;4.28;;;;;;;5.94;100.00;98678.56;1779428;80;21627;-62
2021/12/19 12:41:00;;;;;;;6.70;3.90;;;;;;;6.13;100.00;98665.91;1784142;80;21138;-63
2021/12/19 12:43:29;;;;;;;8.10;3.62;;;;;;;6.12;100.00;98648.30;1782602;78;21004;-66
2021/12/19 12:46:22;;;;;;;8.40;4.30;;;;;;;6.24;100.00;98644.16;1782551;79;21092;-70